Le Ponant — FGZZ — position and weather

sailwx.info

Track history (hours):
 
Tides and Currents Weather Stations Pressure Air Temp Water Temp Dewpoint Dewpoint Depression Visibility Wind Speed Wind Dir Waves Ship Positions

Le Ponant

Operator: Compangy des Iles du Ponant

Last reported at 2019-Jul-15 18:04 UTC. Time now 2019-Jul-16 02:35 UTC.
Position N 41°57' E 009°44'.

Length 84 m; draft 4.2 m.

Type: Passenger vessel. MMSI: 227186000.

Date/timePositionNaut miles runAvg speedWind from/ knotsBaromVisibWave heightAir tempDewpointWater temp
2019-Jul-15 18:04N 41°57' E 009°44'1 4.6
2019-Jul-15 17:53N 41°57' E 009°43'2 4.3
2019-Jul-15 17:30N 41°55' E 009°42'3 5.3
2019-Jul-15 17:00N 41°53' E 009°41'44 2.2
2019-Jul-14 20:52N 41°09' E 009°32'0 0.0
2019-Jul-14 20:02N 41°09' E 009°33'0 0.0
2019-Jul-14 19:40N 41°09' E 009°33'0 0.0
2019-Jul-14 17:53N 41°09' E 009°32'0 0.0
2019-Jul-14 17:30N 41°09' E 009°32'0 0.0
2019-Jul-14 17:00N 41°09' E 009°32'37 0.9
2019-Jul-13 01:16N 41°27' E 008°49'2 7.3
2019-Jul-13 00:59N 41°29' E 008°48'27 6.8
2019-Jul-12 20:57N 41°53' E 008°31'3 6.8
2019-Jul-12 20:30N 41°55' E 008°33'7 1.3
2019-Jul-12 15:08N 42°02' E 008°29'2 5.8
2019-Jul-12 14:47N 42°03' E 008°31'27 8.0
2019-Jul-12 11:28N 42°30' E 008°32'5 7.2
2019-Jul-12 10:49N 42°33' E 008°37'5 7.0
2019-Jul-12 10:04N 42°36' E 008°43'0 7.5
2019-Jul-12 10:00N 42°36' E 008°43'3 5.0
2019-Jul-12 09:22N 42°34' E 008°46'0 0.1
2019-Jul-12 08:58N 42°34' E 008°46'0 0.1
2019-Jul-12 08:14N 42°34' E 008°46'0 0.0
2019-Jul-12 07:58N 42°34' E 008°46'0 0.0
2019-Jul-12 07:27N 42°34' E 008°46'0 0.0
2019-Jul-12 07:00N 42°34' E 008°46'0 0.0
2019-Jul-12 06:27N 42°34' E 008°46'0 0.0
2019-Jul-12 06:00N 42°34' E 008°46'0 0.1
2019-Jul-12 05:29N 42°34' E 008°46'0 0.0
2019-Jul-12 05:00N 42°34' E 008°46'0 0.0
2019-Jul-12 04:28N 42°34' E 008°46'0 0.8
2019-Jul-12 04:00N 42°34' E 008°46'3 6.8
2019-Jul-12 03:30N 42°37' E 008°44'4 7.2
2019-Jul-12 02:59N 42°40' E 008°40'3 6.4
2019-Jul-12 02:28N 42°42' E 008°37'27 7.5
2019-Jul-11 22:51N 43°01' E 008°11'3 7.1
2019-Jul-11 22:29N 43°03' E 008°08'4 7.4
2019-Jul-11 22:00N 43°06' E 008°05'4 7.3
2019-Jul-11 21:30N 43°08' E 008°01'4 7.4
2019-Jul-11 20:55N 43°11' E 007°56'3 8.0
2019-Jul-11 20:29N 43°13' E 007°53'4 7.7
2019-Jul-11 20:00N 43°16' E 007°50'4 7.9
2019-Jul-11 19:30N 43°19' E 007°46'4 8.4
2019-Jul-11 19:00N 43°22' E 007°42'5 9.2
2019-Jul-11 18:30N 43°25' E 007°37'5 9.7
2019-Jul-11 18:00N 43°28' E 007°32'5 9.7
2019-Jul-11 17:30N 43°32' E 007°28'5 9.5
2019-Jul-11 17:00N 43°35' E 007°23'5 9.1
2019-Jul-11 16:30N 43°39' E 007°19'3 6.7
2019-Jul-11 16:00N 43°42' E 007°17'0 0.0
2019-Jul-11 15:29N 43°42' E 007°17'0 0.0
2019-Jul-11 14:58N 43°42' E 007°17'0 0.0
2019-Jul-11 14:28N 43°42' E 007°17'0 0.0
2019-Jul-11 13:59N 43°42' E 007°17'0 0.0
2019-Jul-11 13:30N 43°42' E 007°17'0 0.0
2019-Jul-11 12:58N 43°42' E 007°17'0 0.0
2019-Jul-11 12:25N 43°42' E 007°17'0 0.0
2019-Jul-11 11:53N 43°42' E 007°17'0 0.0
2019-Jul-11 11:29N 43°42' E 007°17'0 0.0
2019-Jul-11 10:59N 43°42' E 007°17'0 0.0
2019-Jul-11 10:26N 43°42' E 007°17'0 0.0
2019-Jul-11 09:53N 43°42' E 007°17'0 0.0
2019-Jul-11 09:26N 43°42' E 007°17'0 0.0
2019-Jul-11 08:59N 43°42' E 007°17'0 0.0
2019-Jul-11 08:28N 43°42' E 007°17'0 0.0
2019-Jul-11 07:57N 43°42' E 007°17'0 0.0
2019-Jul-11 07:28N 43°42' E 007°17'0 0.2
2019-Jul-11 07:00N 43°42' E 007°17'3 5.3
2019-Jul-11 06:30N 43°40' E 007°20'5 9.7
2019-Jul-11 06:00N 43°38' E 007°26'5 9.7
2019-Jul-11 05:30N 43°36' E 007°32'5 9.9
2019-Jul-11 05:00N 43°35' E 007°39'3 6.2
2019-Jul-11 04:30N 43°34' E 007°42'5 9.7
2019-Jul-11 04:00N 43°32' E 007°49'5 9.6
2019-Jul-11 03:30N 43°30' E 007°55'5 9.3
2019-Jul-11 03:00N 43°29' E 008°01'5 9.3
2019-Jul-11 02:30N 43°27' E 008°07'5 9.2
2019-Jul-11 02:00N 43°26' E 008°13'5 9.3
2019-Jul-11 01:27N 43°24' E 008°20'4 9.1
2019-Jul-11 01:00N 43°23' E 008°25'4 8.8
2019-Jul-11 00:30N 43°22' E 008°31'4 8.4
2019-Jul-11 00:00N 43°21' E 008°36'4 8.5
2019-Jul-10 23:30N 43°20' E 008°42'4 8.5
2019-Jul-10 23:00N 43°18' E 008°48'4 8.5
2019-Jul-10 22:30N 43°17' E 008°53'4 8.6
2019-Jul-10 22:00N 43°16' E 008°59'4 8.6
2019-Jul-10 21:30N 43°15' E 009°05'4 8.5
2019-Jul-10 21:00N 43°13' E 009°10'4 8.6
2019-Jul-10 20:30N 43°12' E 009°15'4 8.3
2019-Jul-10 20:00N 43°10' E 009°21'4 8.2
2019-Jul-10 19:30N 43°08' E 009°26'5 8.4
2019-Jul-10 18:55N 43°06' E 009°32'3 8.4
2019-Jul-10 18:30N 43°04' E 009°35'7 8.5
2019-Jul-10 17:43N 42°58' E 009°40'2 8.8
2019-Jul-10 17:27N 42°56' E 009°41'9 8.6
2019-Jul-10 16:24N 42°54' E 009°53'20 8.8
2019-Jul-10 14:04N 42°50' E 010°21'1 7.5
2019-Jul-10 13:59N 42°50' E 010°21'1 2.6
2019-Jul-10 13:26N 42°48' E 010°20'6 0.6
2019-Jul-10 04:07N 42°52' E 010°14'2 7.8
2019-Jul-10 03:52N 42°52' E 010°12'39 7.9
2019-Jul-09 22:56N 42°17' E 009°50'21 9.1
2019-Jul-09 20:37N 41°56' E 009°42'1 9.9
2019-Jul-09 20:29N 41°55' E 009°42'35 2.3
2019-Jul-09 05:23N 41°20' E 009°42'24 8.5
2019-Jul-09 02:36N 41°15' E 010°14'1 8.4
2019-Jul-09 02:30N 41°15' E 010°14'4 8.2
2019-Jul-09 02:00N 41°15' E 010°20'4 8.0
2019-Jul-09 01:29N 41°14' E 010°25'25 7.5
2019-Jul-08 22:06N 41°09' E 010°58'1 7.8
2019-Jul-08 21:57N 41°09' E 010°60'126 6.1
2019-Jul-08 01:25N 40°39' E 013°42'3 7.4
2019-Jul-08 00:58N 40°37' E 013°46'4 7.5
2019-Jul-08 00:29N 40°36' E 013°50'4 7.6
2019-Jul-08 00:00N 40°35' E 013°55'4 7.7
2019-Jul-07 23:29N 40°36' E 014°00'4 7.8
2019-Jul-07 23:00N 40°36' E 014°05'4 7.9
2019-Jul-07 22:30N 40°35' E 014°10'3 5.7
2019-Jul-07 21:58N 40°34' E 014°14'0 0.0
2019-Jul-07 21:27N 40°34' E 014°14'0 0.0
2019-Jul-07 20:59N 40°34' E 014°14'0 0.0
2019-Jul-07 20:28N 40°34' E 014°14'0 0.0
2019-Jul-07 19:53N 40°34' E 014°14'0 0.1
2019-Jul-07 19:28N 40°34' E 014°14'0 0.1
2019-Jul-07 19:00N 40°34' E 014°14'0 0.0
2019-Jul-07 18:24N 40°34' E 014°14'0 0.0
2019-Jul-07 18:00N 40°34' E 014°14'0 0.0
2019-Jul-07 17:27N 40°34' E 014°14'0 0.0
2019-Jul-07 16:58N 40°34' E 014°14'0 0.0
2019-Jul-07 16:25N 40°34' E 014°14'0 0.0
2019-Jul-07 15:47N 40°34' E 014°14'0 0.0
2019-Jul-07 15:27N 40°34' E 014°14'0 0.0
2019-Jul-07 15:00N 40°34' E 014°14'0 0.0
2019-Jul-07 14:29N 40°34' E 014°14'0 0.1
2019-Jul-07 13:51N 40°34' E 014°14'2 4.7
2019-Jul-07 13:30N 40°34' E 014°16'4 8.5
2019-Jul-07 13:01N 40°33' E 014°21'4 8.8
2019-Jul-07 12:31N 40°34' E 014°27'5 9.0
2019-Jul-07 12:01N 40°35' E 014°32'3 0.7
2019-Jul-07 07:06N 40°36' E 014°37'1 9.1
2019-Jul-07 07:00N 40°35' E 014°37'5 9.2
2019-Jul-07 06:30N 40°31' E 014°38'5 9.1
2019-Jul-07 05:59N 40°26' E 014°39'5 9.2
2019-Jul-07 05:25N 40°21' E 014°40'4 9.0
2019-Jul-07 04:58N 40°17' E 014°41'91 8.9
2019-Jul-06 18:45N 38°47' E 014°56'2 5.8
2019-Jul-06 18:26N 38°45' E 014°57'6 8.9
2019-Jul-06 17:43N 38°39' E 014°58'2 8.9
2019-Jul-06 17:28N 38°36' E 014°58'4 9.0
2019-Jul-06 16:58N 38°32' E 014°59'4 8.3
2019-Jul-06 16:30N 38°28' E 014°59'1 1.5
2019-Jul-06 16:00N 38°28' E 014°58'0 0.3
2019-Jul-06 15:22N 38°28' E 014°58'0 0.0
2019-Jul-06 14:42N 38°28' E 014°58'0 0.0
2019-Jul-06 13:05N 38°28' E 014°58'0 0.0
2019-Jul-06 12:25N 38°28' E 014°58'0 0.0
2019-Jul-06 10:24N 38°28' E 014°58'0 0.0
2019-Jul-06 09:56N 38°28' E 014°58'0 0.0
2019-Jul-06 08:22N 38°28' E 014°58'0 0.0
2019-Jul-06 07:24N 38°28' E 014°58'0 0.0
2019-Jul-06 06:53N 38°28' E 014°58'0 0.5
2019-Jul-06 06:30N 38°28' E 014°58'4 7.1
2019-Jul-06 05:59N 38°27' E 015°02'4 7.8
2019-Jul-06 05:30N 38°26' E 015°07'4 7.3
2019-Jul-06 05:00N 38°26' E 015°12'4 7.3
2019-Jul-06 04:31N 38°25' E 015°16'4 7.1
2019-Jul-06 04:00N 38°24' E 015°21'4 8.0
2019-Jul-06 03:30N 38°24' E 015°26'4 8.6
2019-Jul-06 03:00N 38°23' E 015°31'9 8.6
2019-Jul-06 02:00N 38°19' E 015°41'4 7.5
2019-Jul-06 01:30N 38°15' E 015°41'3 5.6
2019-Jul-06 01:00N 38°14' E 015°37'4 7.7
2019-Jul-06 00:31N 38°10' E 015°37'5 9.5
2019-Jul-06 00:00N 38°06' E 015°35'5 9.0
2019-Jul-05 23:30N 38°01' E 015°34'4 8.4
2019-Jul-05 23:01N 37°57' E 015°33'4 7.8
2019-Jul-05 22:30N 37°53' E 015°32'4 7.3
2019-Jul-05 22:00N 37°50' E 015°31'4 7.5
2019-Jul-05 21:30N 37°46' E 015°30'4 7.5
2019-Jul-05 21:00N 37°42' E 015°29'4 8.1
2019-Jul-05 20:27N 37°38' E 015°28'8 8.2
2019-Jul-05 19:32N 37°31' E 015°27'0 2.3
2019-Jul-05 19:25N 37°30' E 015°27'4 7.8
2019-Jul-05 18:57N 37°27' E 015°26'  
Track history (hours):
 
Tides and Currents Weather Stations Pressure Air Temp Water Temp Dewpoint Dewpoint Depression Visibility Wind Speed Wind Dir Waves Ship Positions

Le Ponant

Operator: Compangy des Iles du Ponant

Last reported at 2019-Jul-15 18:04 UTC. Time now 2019-Jul-16 02:35 UTC.
Position N 41°57' E 009°44'.

Length 84 m; draft 4.2 m.

Type: Passenger vessel. MMSI: 227186000.

Date/timePositionNaut miles runAvg speedWind from/ knotsBaromVisibWave heightAir tempDewpointWater temp
2019-Jul-15 18:04N 41°57' E 009°44'1 4.6
2019-Jul-15 17:53N 41°57' E 009°43'2 4.3
2019-Jul-15 17:30N 41°55' E 009°42'3 5.3
2019-Jul-15 17:00N 41°53' E 009°41'44 2.2
2019-Jul-14 20:52N 41°09' E 009°32'0 0.0
2019-Jul-14 20:02N 41°09' E 009°33'0 0.0
2019-Jul-14 19:40N 41°09' E 009°33'0 0.0
2019-Jul-14 17:53N 41°09' E 009°32'0 0.0
2019-Jul-14 17:30N 41°09' E 009°32'0 0.0
2019-Jul-14 17:00N 41°09' E 009°32'37 0.9
2019-Jul-13 01:16N 41°27' E 008°49'2 7.3
2019-Jul-13 00:59N 41°29' E 008°48'27 6.8
2019-Jul-12 20:57N 41°53' E 008°31'3 6.8
2019-Jul-12 20:30N 41°55' E 008°33'7 1.3
2019-Jul-12 15:08N 42°02' E 008°29'2 5.8
2019-Jul-12 14:47N 42°03' E 008°31'27 8.0
2019-Jul-12 11:28N 42°30' E 008°32'5 7.2
2019-Jul-12 10:49N 42°33' E 008°37'5 7.0
2019-Jul-12 10:04N 42°36' E 008°43'0 7.5
2019-Jul-12 10:00N 42°36' E 008°43'3 5.0
2019-Jul-12 09:22N 42°34' E 008°46'0 0.1
2019-Jul-12 08:58N 42°34' E 008°46'0 0.1
2019-Jul-12 08:14N 42°34' E 008°46'0 0.0
2019-Jul-12 07:58N 42°34' E 008°46'0 0.0
2019-Jul-12 07:27N 42°34' E 008°46'0 0.0
2019-Jul-12 07:00N 42°34' E 008°46'0 0.0
2019-Jul-12 06:27N 42°34' E 008°46'0 0.0
2019-Jul-12 06:00N 42°34' E 008°46'0 0.1
2019-Jul-12 05:29N 42°34' E 008°46'0 0.0
2019-Jul-12 05:00N 42°34' E 008°46'0 0.0
2019-Jul-12 04:28N 42°34' E 008°46'0 0.8
2019-Jul-12 04:00N 42°34' E 008°46'3 6.8
2019-Jul-12 03:30N 42°37' E 008°44'4 7.2
2019-Jul-12 02:59N 42°40' E 008°40'3 6.4
2019-Jul-12 02:28N 42°42' E 008°37'27 7.5
2019-Jul-11 22:51N 43°01' E 008°11'3 7.1
2019-Jul-11 22:29N 43°03' E 008°08'4 7.4
2019-Jul-11 22:00N 43°06' E 008°05'4 7.3
2019-Jul-11 21:30N 43°08' E 008°01'4 7.4
2019-Jul-11 20:55N 43°11' E 007°56'3 8.0
2019-Jul-11 20:29N 43°13' E 007°53'4 7.7
2019-Jul-11 20:00N 43°16' E 007°50'4 7.9
2019-Jul-11 19:30N 43°19' E 007°46'4 8.4
2019-Jul-11 19:00N 43°22' E 007°42'5 9.2
2019-Jul-11 18:30N 43°25' E 007°37'5 9.7
2019-Jul-11 18:00N 43°28' E 007°32'5 9.7
2019-Jul-11 17:30N 43°32' E 007°28'5 9.5
2019-Jul-11 17:00N 43°35' E 007°23'5 9.1
2019-Jul-11 16:30N 43°39' E 007°19'3 6.7
2019-Jul-11 16:00N 43°42' E 007°17'0 0.0
2019-Jul-11 15:29N 43°42' E 007°17'0 0.0
2019-Jul-11 14:58N 43°42' E 007°17'0 0.0
2019-Jul-11 14:28N 43°42' E 007°17'0 0.0
2019-Jul-11 13:59N 43°42' E 007°17'0 0.0
2019-Jul-11 13:30N 43°42' E 007°17'0 0.0
2019-Jul-11 12:58N 43°42' E 007°17'0 0.0
2019-Jul-11 12:25N 43°42' E 007°17'0 0.0
2019-Jul-11 11:53N 43°42' E 007°17'0 0.0
2019-Jul-11 11:29N 43°42' E 007°17'0 0.0
2019-Jul-11 10:59N 43°42' E 007°17'0 0.0
2019-Jul-11 10:26N 43°42' E 007°17'0 0.0
2019-Jul-11 09:53N 43°42' E 007°17'0 0.0
2019-Jul-11 09:26N 43°42' E 007°17'0 0.0
2019-Jul-11 08:59N 43°42' E 007°17'0 0.0
2019-Jul-11 08:28N 43°42' E 007°17'0 0.0
2019-Jul-11 07:57N 43°42' E 007°17'0 0.0
2019-Jul-11 07:28N 43°42' E 007°17'0 0.2
2019-Jul-11 07:00N 43°42' E 007°17'3 5.3
2019-Jul-11 06:30N 43°40' E 007°20'5 9.7
2019-Jul-11 06:00N 43°38' E 007°26'5 9.7
2019-Jul-11 05:30N 43°36' E 007°32'5 9.9
2019-Jul-11 05:00N 43°35' E 007°39'3 6.2
2019-Jul-11 04:30N 43°34' E 007°42'5 9.7
2019-Jul-11 04:00N 43°32' E 007°49'5 9.6
2019-Jul-11 03:30N 43°30' E 007°55'5 9.3
2019-Jul-11 03:00N 43°29' E 008°01'5 9.3
2019-Jul-11 02:30N 43°27' E 008°07'5 9.2
2019-Jul-11 02:00N 43°26' E 008°13'5 9.3
2019-Jul-11 01:27N 43°24' E 008°20'4 9.1
2019-Jul-11 01:00N 43°23' E 008°25'4 8.8
2019-Jul-11 00:30N 43°22' E 008°31'4 8.4
2019-Jul-11 00:00N 43°21' E 008°36'4 8.5
2019-Jul-10 23:30N 43°20' E 008°42'4 8.5
2019-Jul-10 23:00N 43°18' E 008°48'4 8.5
2019-Jul-10 22:30N 43°17' E 008°53'4 8.6
2019-Jul-10 22:00N 43°16' E 008°59'4 8.6
2019-Jul-10 21:30N 43°15' E 009°05'4 8.5
2019-Jul-10 21:00N 43°13' E 009°10'4 8.6
2019-Jul-10 20:30N 43°12' E 009°15'4 8.3
2019-Jul-10 20:00N 43°10' E 009°21'4 8.2
2019-Jul-10 19:30N 43°08' E 009°26'5 8.4
2019-Jul-10 18:55N 43°06' E 009°32'3 8.4
2019-Jul-10 18:30N 43°04' E 009°35'7 8.5
2019-Jul-10 17:43N 42°58' E 009°40'2 8.8
2019-Jul-10 17:27N 42°56' E 009°41'9 8.6
2019-Jul-10 16:24N 42°54' E 009°53'20 8.8
2019-Jul-10 14:04N 42°50' E 010°21'1 7.5
2019-Jul-10 13:59N 42°50' E 010°21'1 2.6
2019-Jul-10 13:26N 42°48' E 010°20'6 0.6
2019-Jul-10 04:07N 42°52' E 010°14'2 7.8
2019-Jul-10 03:52N 42°52' E 010°12'39 7.9
2019-Jul-09 22:56N 42°17' E 009°50'21 9.1
2019-Jul-09 20:37N 41°56' E 009°42'1 9.9
2019-Jul-09 20:29N 41°55' E 009°42'35 2.3
2019-Jul-09 05:23N 41°20' E 009°42'24 8.5
2019-Jul-09 02:36N 41°15' E 010°14'1 8.4
2019-Jul-09 02:30N 41°15' E 010°14'4 8.2
2019-Jul-09 02:00N 41°15' E 010°20'4 8.0
2019-Jul-09 01:29N 41°14' E 010°25'25 7.5
2019-Jul-08 22:06N 41°09' E 010°58'1 7.8
2019-Jul-08 21:57N 41°09' E 010°60'126 6.1
2019-Jul-08 01:25N 40°39' E 013°42'3 7.4
2019-Jul-08 00:58N 40°37' E 013°46'4 7.5
2019-Jul-08 00:29N 40°36' E 013°50'4 7.6
2019-Jul-08 00:00N 40°35' E 013°55'4 7.7
2019-Jul-07 23:29N 40°36' E 014°00'4 7.8
2019-Jul-07 23:00N 40°36' E 014°05'4 7.9
2019-Jul-07 22:30N 40°35' E 014°10'3 5.7
2019-Jul-07 21:58N 40°34' E 014°14'0 0.0
2019-Jul-07 21:27N 40°34' E 014°14'0 0.0
2019-Jul-07 20:59N 40°34' E 014°14'0 0.0
2019-Jul-07 20:28N 40°34' E 014°14'0 0.0
2019-Jul-07 19:53N 40°34' E 014°14'0 0.1
2019-Jul-07 19:28N 40°34' E 014°14'0 0.1
2019-Jul-07 19:00N 40°34' E 014°14'0 0.0
2019-Jul-07 18:24N 40°34' E 014°14'0 0.0
2019-Jul-07 18:00N 40°34' E 014°14'0 0.0
2019-Jul-07 17:27N 40°34' E 014°14'0 0.0
2019-Jul-07 16:58N 40°34' E 014°14'0 0.0
2019-Jul-07 16:25N 40°34' E 014°14'0 0.0
2019-Jul-07 15:47N 40°34' E 014°14'0 0.0
2019-Jul-07 15:27N 40°34' E 014°14'0 0.0
2019-Jul-07 15:00N 40°34' E 014°14'0 0.0
2019-Jul-07 14:29N 40°34' E 014°14'0 0.1
2019-Jul-07 13:51N 40°34' E 014°14'2 4.7
2019-Jul-07 13:30N 40°34' E 014°16'4 8.5
2019-Jul-07 13:01N 40°33' E 014°21'4 8.8
2019-Jul-07 12:31N 40°34' E 014°27'5 9.0
2019-Jul-07 12:01N 40°35' E 014°32'3 0.7
2019-Jul-07 07:06N 40°36' E 014°37'1 9.1
2019-Jul-07 07:00N 40°35' E 014°37'5 9.2
2019-Jul-07 06:30N 40°31' E 014°38'5 9.1
2019-Jul-07 05:59N 40°26' E 014°39'5 9.2
2019-Jul-07 05:25N 40°21' E 014°40'4 9.0
2019-Jul-07 04:58N 40°17' E 014°41'91 8.9
2019-Jul-06 18:45N 38°47' E 014°56'2 5.8
2019-Jul-06 18:26N 38°45' E 014°57'6 8.9
2019-Jul-06 17:43N 38°39' E 014°58'2 8.9
2019-Jul-06 17:28N 38°36' E 014°58'4 9.0
2019-Jul-06 16:58N 38°32' E 014°59'4 8.3
2019-Jul-06 16:30N 38°28' E 014°59'1 1.5
2019-Jul-06 16:00N 38°28' E 014°58'0 0.3
2019-Jul-06 15:22N 38°28' E 014°58'0 0.0
2019-Jul-06 14:42N 38°28' E 014°58'0 0.0
2019-Jul-06 13:05N 38°28' E 014°58'0 0.0
2019-Jul-06 12:25N 38°28' E 014°58'0 0.0
2019-Jul-06 10:24N 38°28' E 014°58'0 0.0
2019-Jul-06 09:56N 38°28' E 014°58'0 0.0
2019-Jul-06 08:22N 38°28' E 014°58'0 0.0
2019-Jul-06 07:24N 38°28' E 014°58'0 0.0
2019-Jul-06 06:53N 38°28' E 014°58'0 0.5
2019-Jul-06 06:30N 38°28' E 014°58'4 7.1
2019-Jul-06 05:59N 38°27' E 015°02'4 7.8
2019-Jul-06 05:30N 38°26' E 015°07'4 7.3
2019-Jul-06 05:00N 38°26' E 015°12'4 7.3
2019-Jul-06 04:31N 38°25' E 015°16'4 7.1
2019-Jul-06 04:00N 38°24' E 015°21'4 8.0
2019-Jul-06 03:30N 38°24' E 015°26'4 8.6
2019-Jul-06 03:00N 38°23' E 015°31'9 8.6
2019-Jul-06 02:00N 38°19' E 015°41'4 7.5
2019-Jul-06 01:30N 38°15' E 015°41'3 5.6
2019-Jul-06 01:00N 38°14' E 015°37'4 7.7
2019-Jul-06 00:31N 38°10' E 015°37'5 9.5
2019-Jul-06 00:00N 38°06' E 015°35'5 9.0
2019-Jul-05 23:30N 38°01' E 015°34'4 8.4
2019-Jul-05 23:01N 37°57' E 015°33'4 7.8
2019-Jul-05 22:30N 37°53' E 015°32'4 7.3
2019-Jul-05 22:00N 37°50' E 015°31'4 7.5
2019-Jul-05 21:30N 37°46' E 015°30'4 7.5
2019-Jul-05 21:00N 37°42' E 015°29'4 8.1
2019-Jul-05 20:27N 37°38' E 015°28'8 8.2
2019-Jul-05 19:32N 37°31' E 015°27'0 2.3
2019-Jul-05 19:25N 37°30' E 015°27'4 7.8
2019-Jul-05 18:57N 37°27' E 015°26'  

Dump ship's entire track history